createdAt,value
2019-05-02T00:03:42.953Z,8.65
2019-05-02T00:08:46.355Z,8.48
2019-05-02T00:13:49.822Z,8.73
2019-05-02T00:18:52.999Z,8.68
2019-05-02T00:23:59.136Z,8.18
2019-05-02T00:29:01.269Z,8.20
2019-05-02T00:34:04.747Z,9.40
2019-05-02T00:39:09.477Z,9.03
2019-05-02T00:44:13.176Z,10.30
2019-05-02T00:49:16.673Z,9.30
2019-05-02T00:54:24.194Z,10.28
2019-05-02T00:59:24.847Z,10.85
2019-05-02T01:04:33.399Z,10.70
2019-05-02T01:09:36.444Z,13.13
2019-05-02T01:14:39.555Z,11.20
2019-05-02T01:19:42.604Z,12.78
2019-05-02T01:24:45.678Z,16.45
2019-05-02T01:30:08.353Z,16.05
2019-05-02T01:35:20.686Z,16.20
2019-05-02T01:40:23.624Z,16.30
2019-05-02T01:45:26.753Z,18.75
2019-05-02T01:50:33.517Z,22.55
2019-05-02T01:55:34.652Z,22.10
2019-05-02T02:00:40.959Z,18.45
2019-05-02T02:05:43.247Z,20.82
2019-05-02T02:10:50.631Z,18.77
2019-05-02T02:15:51.522Z,19.43
2019-05-02T02:21:13.967Z,18.23
2019-05-02T02:26:17.879Z,19.80
2019-05-02T02:31:21.438Z,19.82
2019-05-02T02:36:31.758Z,23.42
2019-05-02T02:41:29.460Z,26.07
2019-05-02T02:46:37.727Z,22.70
2019-05-02T02:51:38.439Z,25.20
2019-05-02T02:56:42.675Z,21.12
2019-05-02T03:01:46.070Z,24.52
2019-05-02T03:06:49.057Z,23.12
2019-05-02T03:12:10.355Z,21.57
2019-05-02T03:17:13.324Z,20.88
2019-05-02T03:22:16.681Z,19.73
2019-05-02T03:27:20.131Z,22.65
2019-05-02T03:32:33.746Z,18.45
2019-05-02T03:37:29.090Z,20.40
2019-05-02T03:42:43.644Z,18.92
2019-05-02T03:47:43.473Z,19.60
2019-05-02T03:52:44.016Z,21.23
2019-05-02T03:57:47.383Z,18.30
2019-05-02T04:02:59.162Z,19.32
2019-05-02T04:07:55.968Z,15.15
2019-05-02T04:12:59.954Z,15.50
2019-05-02T04:18:08.560Z,18.02
2019-05-02T04:23:08.239Z,16.30
2019-05-02T04:28:14.352Z,15.43
2019-05-02T04:33:17.113Z,14.03
2019-05-02T04:38:30.961Z,14.50
2019-05-02T04:43:28.598Z,12.82
2019-05-02T04:48:34.757Z,12.30
2019-05-02T04:53:42.324Z,11.65
2019-05-02T04:58:40.961Z,14.00
2019-05-02T05:03:49.165Z,11.85
2019-05-02T05:08:49.099Z,11.63
2019-05-02T05:13:52.549Z,11.30
2019-05-02T05:18:57.820Z,9.65
2019-05-02T05:24:21.436Z,10.98
2019-05-02T05:29:24.507Z,11.65
2019-05-02T05:34:32.286Z,12.07
2019-05-02T05:39:32.388Z,10.18
2019-05-02T05:44:35.394Z,10.28
2019-05-02T05:49:38.447Z,9.08
2019-05-02T05:54:42.108Z,9.90
2019-05-02T05:59:45.301Z,9.97
2019-05-02T06:04:50.266Z,10.72
2019-05-02T06:09:53.183Z,10.58
2019-05-02T06:15:01.314Z,10.00
2019-05-02T06:20:01.096Z,10.03
2019-05-02T06:25:09.807Z,9.28
2019-05-02T06:30:13.973Z,10.08
2019-05-02T06:35:21.222Z,10.75
2019-05-02T06:40:22.034Z,8.53
2019-05-02T06:45:25.321Z,10.35
2019-05-02T06:50:28.545Z,11.45
2019-05-02T06:55:36.238Z,10.13
2019-05-02T07:00:51.691Z,10.15
2019-05-02T07:05:41.501Z,12.73
2019-05-02T07:10:45.296Z,13.25
2019-05-02T07:16:16.239Z,13.58
2019-05-02T07:21:22.919Z,14.18
2019-05-02T07:26:23.283Z,14.98
2019-05-02T07:31:26.649Z,13.45
2019-05-02T07:36:31.185Z,16.70
2019-05-02T07:41:37.228Z,14.53
2019-05-02T07:46:51.204Z,13.60
2019-05-02T07:51:45.114Z,14.00
2019-05-02T07:56:48.618Z,14.85
2019-05-02T08:01:51.968Z,15.32
2019-05-02T08:06:55.005Z,17.30
2019-05-02T08:11:58.289Z,16.40
2019-05-02T08:17:05.801Z,15.93
2019-05-02T08:22:13.169Z,12.93
2019-05-02T08:27:39.836Z,13.13
2019-05-02T08:32:58.300Z,11.77
2019-05-02T08:38:01.857Z,13.28
2019-05-02T08:43:09.010Z,10.25
2019-05-02T08:48:09.874Z,11.43
2019-05-02T08:53:14.341Z,10.53
2019-05-02T08:58:18.275Z,8.60
2019-05-02T09:03:21.283Z,8.58
2019-05-02T09:08:24.403Z,11.25
2019-05-02T09:13:29.512Z,9.18
2019-05-02T09:18:38.277Z,9.08
2019-05-02T09:23:37.311Z,9.55
2019-05-02T09:28:42.069Z,9.55
2019-05-02T09:33:46.855Z,9.35
2019-05-02T09:38:53.969Z,7.42
2019-05-02T09:43:55.071Z,8.65
2019-05-02T09:49:02.477Z,8.38
2019-05-02T09:54:06.382Z,9.50
2019-05-02T09:59:26.200Z,9.43
2019-05-02T10:04:17.588Z,8.85
2019-05-02T10:09:23.981Z,8.68
2019-05-02T10:14:25.698Z,13.40
2019-05-02T10:19:28.983Z,10.30
2019-05-02T10:24:32.331Z,10.55
2019-05-02T10:29:35.509Z,10.88
2019-05-02T10:34:39.025Z,12.58
2019-05-02T10:39:42.343Z,10.32
2019-05-02T10:44:45.545Z,9.45
2019-05-02T10:49:56.649Z,9.58
2019-05-02T10:55:02.511Z,10.18
2019-05-02T11:00:07.846Z,11.27
2019-05-02T11:05:16.823Z,11.90
2019-05-02T11:10:21.691Z,10.65
2019-05-02T11:15:44.338Z,9.93
2019-05-02T11:20:47.451Z,9.05
2019-05-02T11:25:52.666Z,12.28
2019-05-02T11:30:57.049Z,11.15
2019-05-02T11:36:02.517Z,11.63
2019-05-02T11:41:05.600Z,9.65
2019-05-02T11:46:08.643Z,10.55
2019-05-02T11:51:16.239Z,11.50
2019-05-02T11:56:16.944Z,9.58
2019-05-02T12:01:34.281Z,10.80
2019-05-02T12:06:24.906Z,10.78
2019-05-02T12:11:27.996Z,8.35
2019-05-02T12:16:32.272Z,9.65
2019-05-02T12:21:39.049Z,8.60
2019-05-02T12:26:41.924Z,8.05
2019-05-02T12:31:47.218Z,8.78
2019-05-02T12:36:51.786Z,8.18
2019-05-02T12:41:55.658Z,8.60
2019-05-02T12:46:58.993Z,7.85
2019-05-02T12:52:02.196Z,8.08
2019-05-02T12:57:05.204Z,9.45
2019-05-02T13:02:12.960Z,7.45
2019-05-02T13:07:15.965Z,7.17
2019-05-02T13:12:24.628Z,7.30
2019-05-02T13:17:29.381Z,8.40
2019-05-02T13:23:10.191Z,6.78
2019-05-02T13:28:17.176Z,8.65
2019-05-02T13:33:32.455Z,6.40
2019-05-02T13:38:34.450Z,6.70
2019-05-02T13:43:44.595Z,6.53
2019-05-02T13:48:47.663Z,6.40
2019-05-02T13:54:01.971Z,7.87
2019-05-02T13:59:04.476Z,8.13
2019-05-02T14:04:10.185Z,6.00
2019-05-02T14:09:39.308Z,7.67
2019-05-02T14:14:42.472Z,6.75
2019-05-02T14:19:45.651Z,7.83
2019-05-02T14:24:48.812Z,6.85
2019-05-02T14:29:52.546Z,5.83
2019-05-02T14:35:18.543Z,7.22
2019-05-02T14:40:26.470Z,6.70
2019-05-02T14:45:31.461Z,6.33
2019-05-02T14:50:36.594Z,7.47
2019-05-02T14:55:42.097Z,5.70
2019-05-02T15:00:48.082Z,7.10
2019-05-02T15:05:52.739Z,6.90
2019-05-02T15:10:56.709Z,7.10
2019-05-02T15:16:02.330Z,6.15
2019-05-02T15:21:12.162Z,5.67
2019-05-02T15:26:12.266Z,6.05
2019-05-02T15:31:24.310Z,6.50
2019-05-02T15:36:26.218Z,5.55
2019-05-02T15:41:29.472Z,5.72
2019-05-02T15:46:32.567Z,6.87
2019-05-02T15:51:38.010Z,6.12
2019-05-02T15:57:00.574Z,6.33
2019-05-02T16:01:58.573Z,5.97
2019-05-02T16:07:07.113Z,5.92
2019-05-02T16:12:06.632Z,5.73
2019-05-02T16:17:09.686Z,6.60
2019-05-02T16:22:16.792Z,7.35
2019-05-02T16:27:25.840Z,6.22
2019-05-02T16:32:52.107Z,5.90
2019-05-02T16:37:56.101Z,6.87
2019-05-02T16:42:59.311Z,4.83
2019-05-02T16:48:03.280Z,6.30
2019-05-02T16:53:06.846Z,5.92
2019-05-02T16:58:11.720Z,5.60
2019-05-02T17:03:17.292Z,5.90
2019-05-02T17:08:32.729Z,5.50
2019-05-02T17:13:35.904Z,5.58
2019-05-02T17:18:39.282Z,5.50
2019-05-02T17:23:46.444Z,5.75
2019-05-02T17:28:47.411Z,5.17
2019-05-02T17:33:52.431Z,5.80
2019-05-02T17:38:59.362Z,5.00
2019-05-02T17:44:00.490Z,5.30
2019-05-02T17:49:03.854Z,5.15
2019-05-02T17:54:08.053Z,5.28
2019-05-02T17:59:11.824Z,5.50
2019-05-02T18:04:16.499Z,5.55
2019-05-02T18:09:21.573Z,6.05
2019-05-02T18:14:24.985Z,5.67
2019-05-02T18:19:28.436Z,7.17
2019-05-02T18:24:32.762Z,6.65
2019-05-02T18:29:41.103Z,7.15
2019-05-02T18:34:41.793Z,7.75
2019-05-02T18:39:49.978Z,9.23
2019-05-02T18:44:53.022Z,10.65
2019-05-02T18:50:00.905Z,9.53
2019-05-02T18:55:01.621Z,6.28
2019-05-02T19:00:05.779Z,7.58
2019-05-02T19:05:13.442Z,8.00
2019-05-02T19:10:15.650Z,7.60
2019-05-02T19:15:19.179Z,7.15
2019-05-02T19:21:05.765Z,8.45
2019-05-02T19:26:12.389Z,7.80
2019-05-02T19:31:14.621Z,8.85
2019-05-02T19:36:24.466Z,8.83
2019-05-02T19:41:22.739Z,9.25
2019-05-02T19:46:34.718Z,10.72
2019-05-02T19:51:31.742Z,16.12
2019-05-02T19:56:45.353Z,15.60
2019-05-02T20:01:40.126Z,16.15
2019-05-02T20:06:43.182Z,14.28
2019-05-02T20:11:46.402Z,11.35
2019-05-02T20:16:53.059Z,10.72
2019-05-02T20:27:15.201Z,13.10
2019-05-02T20:32:18.314Z,10.82
2019-05-02T20:37:22.090Z,11.73
2019-05-02T20:42:27.078Z,11.00
2019-05-02T20:47:30.225Z,11.83
2019-05-02T20:52:33.334Z,11.12
2019-05-02T20:57:36.318Z,10.70
2019-05-02T21:02:39.345Z,10.13
2019-05-02T21:07:52.628Z,10.85
2019-05-02T21:12:57.805Z,10.37
2019-05-02T21:18:02.316Z,10.30
2019-05-02T21:23:05.674Z,9.40
2019-05-02T21:28:09.543Z,9.78
2019-05-02T21:33:34.924Z,9.30
2019-05-02T21:38:38.095Z,9.88
2019-05-02T21:43:42.455Z,9.88
2019-05-02T21:48:46.030Z,9.98
2019-05-02T21:54:08.646Z,10.70
2019-05-02T21:59:12.307Z,10.25
2019-05-02T22:04:15.916Z,10.95
2019-05-02T22:09:19.375Z,11.95
2019-05-02T22:14:22.598Z,11.78
2019-05-02T22:19:25.653Z,11.28
2019-05-02T22:24:28.812Z,11.50
2019-05-02T22:29:32.400Z,10.95
2019-05-02T22:34:35.810Z,14.75
2019-05-02T22:39:56.218Z,14.07
2019-05-02T22:44:59.223Z,15.50
2019-05-02T22:50:02.482Z,16.27
2019-05-02T22:55:06.311Z,15.35
2019-05-02T23:00:10.920Z,16.30
2019-05-02T23:05:14.927Z,16.82
2019-05-02T23:10:18.345Z,16.37
2019-05-02T23:15:21.703Z,16.35
2019-05-02T23:20:24.780Z,15.55
2019-05-02T23:25:52.975Z,14.70
2019-05-02T23:30:56.170Z,14.00
2019-05-02T23:35:59.225Z,14.30
2019-05-02T23:41:02.294Z,16.23
2019-05-02T23:46:05.474Z,19.42
2019-05-02T23:51:08.628Z,18.73
2019-05-02T23:56:13.139Z,18.17
